Terminal Aerodrome Forecast
Issued by NWS

Home | Current Version | Previous Version | Text Only | Print | Product List | Glossary On
Versions: 1 2 3 4 5 6 7 8 9 10 11 12 13 14 15 16 17 18 19 20 21 22 23 24 25 26 27 28
439
FTUS41 KGYX 192330
TAFRKD
TAF
KRKD 192330Z 2000/2024 20010KT P6SM OVC070
     FM200200 18007KT 6SM -SHRA BR OVC025
     FM200500 20005KT 1SM -SHRA BR OVC007
     FM200800 23004KT 1SM BR OVC004
     FM201500 02004KT 3SM BR OVC007
      AMD LTD TO CLD VIS AND WIND=

USA.gov is the U.S. government's official web portal to all federal, state and local government web resources and services.